NFTF/TBU METAR and TAF weather

Enter ICAO airport designator
Station Type Date Time Source
NFTF METAR 2020/07/05 03:00 UTC NOAA

NFTF 050300Z 10010KT 9999 FEW012 SCT040 25/20 Q1017


Station Type Date Time Source
NFTF Decoded METAR 2020/07/05 03:00 UTC NOAA

Fua'Amotu, Tonga (NFTF) 21-14S 175-09W 41M
Jul 04, 2020 - 11:00 PM EDT / 2020.07.05 0300 UTC
Wind: from the E (100 degrees) at 12 MPH (10 KT):0
Visibility: greater than 7 mile(s):0
Sky conditions: partly cloudy
Temperature: 77 F (25 C)
Dew Point: 68 F (20 C)
Relative Humidity: 73%
Pressure (altimeter): 30.03 in. Hg (1017 hPa)
ob: NFTF 050300Z 10010KT 9999 FEW012 SCT040 25/20 Q1017
cycle: 3

Station Type Date Time Source
NFTF TAF 2020/07/04 18:06 UTC NOAA

TAF NFTF 041704Z 0418/0518 12011KT 9999 FEW010 SCT050

Example: see airport list